createdAt,value
2018-07-09T00:00:59.210Z,15.60
2018-07-09T00:03:27.528Z,15.60
2018-07-09T00:05:55.888Z,15.60
2018-07-09T00:08:24.164Z,15.60
2018-07-09T00:10:56.943Z,15.50
2018-07-09T00:13:25.924Z,15.50
2018-07-09T00:15:54.652Z,15.50
2018-07-09T00:18:22.973Z,15.50
2018-07-09T00:23:19.300Z,15.50
2018-07-09T00:25:48.516Z,15.50
2018-07-09T00:28:17.801Z,15.50
2018-07-09T00:30:46.120Z,15.50
2018-07-09T00:38:10.949Z,15.40
2018-07-09T00:40:39.235Z,15.40
2018-07-09T00:43:07.545Z,15.40
2018-07-09T00:45:35.878Z,15.40
2018-07-09T00:48:05.002Z,15.40
2018-07-09T00:50:33.298Z,15.40
2018-07-09T00:53:01.603Z,15.30
2018-07-09T00:55:30.020Z,15.30
2018-07-09T00:57:58.338Z,15.20
2018-07-09T01:00:26.675Z,15.20
2018-07-09T01:02:55.045Z,15.20
2018-07-09T01:05:23.336Z,15.20
2018-07-09T01:07:51.728Z,15.20
2018-07-09T01:10:20.025Z,15.20
2018-07-09T01:12:48.301Z,15.20
2018-07-09T01:15:16.663Z,15.20
2018-07-09T01:17:44.926Z,15.10
2018-07-09T01:20:13.197Z,15.10
2018-07-09T01:22:41.505Z,15.10
2018-07-09T01:25:09.835Z,15.00
2018-07-09T01:27:38.133Z,15.00
2018-07-09T01:30:12.653Z,15.00
2018-07-09T01:32:41.209Z,15.00
2018-07-09T01:35:10.641Z,15.00
2018-07-09T01:37:39.631Z,14.90
2018-07-09T01:40:08.091Z,15.00
2018-07-09T01:42:36.609Z,14.90
2018-07-09T01:45:05.047Z,14.90
2018-07-09T01:47:33.331Z,14.90
2018-07-09T01:50:01.675Z,14.90
2018-07-09T01:52:30.364Z,14.80
2018-07-09T01:54:58.739Z,14.80
2018-07-09T01:57:27.229Z,14.80
2018-07-09T01:59:55.625Z,14.80
2018-07-09T02:02:24.418Z,14.80
2018-07-09T02:04:52.671Z,14.80
2018-07-09T02:07:20.939Z,14.80
2018-07-09T02:09:49.347Z,14.80
2018-07-09T02:12:17.690Z,14.80
2018-07-09T02:14:45.968Z,14.80
2018-07-09T02:17:14.278Z,14.70
2018-07-09T02:19:42.563Z,14.70
2018-07-09T02:22:10.865Z,14.60
2018-07-09T02:24:39.219Z,14.60
2018-07-09T02:27:07.540Z,14.60
2018-07-09T02:29:35.792Z,14.60
2018-07-09T02:32:04.070Z,14.60
2018-07-09T02:34:32.341Z,14.60
2018-07-09T02:37:00.624Z,14.60
2018-07-09T02:39:28.913Z,14.60
2018-07-09T02:41:57.188Z,14.60
2018-07-09T02:44:25.515Z,14.60
2018-07-09T02:46:53.786Z,14.50
2018-07-09T02:49:22.070Z,14.50
2018-07-09T02:51:50.330Z,14.50
2018-07-09T02:54:18.840Z,14.50
2018-07-09T02:56:47.116Z,14.40
2018-07-09T02:59:15.378Z,14.40
2018-07-09T03:01:43.680Z,14.30
2018-07-09T03:04:11.980Z,14.30
2018-07-09T03:06:40.260Z,14.30
2018-07-09T03:09:08.740Z,14.20
2018-07-09T03:11:39.215Z,14.20
2018-07-09T03:14:08.728Z,14.10
2018-07-09T03:16:37.301Z,14.10
2018-07-09T03:19:05.610Z,14.10
2018-07-09T03:21:33.873Z,14.00
2018-07-09T03:26:30.121Z,13.90
2018-07-09T03:31:26.402Z,13.90
2018-07-09T03:33:54.699Z,13.90
2018-07-09T03:36:22.943Z,13.90
2018-07-09T03:41:19.229Z,13.90
2018-07-09T03:43:47.491Z,13.80
2018-07-09T03:46:15.791Z,13.80
2018-07-09T03:48:44.036Z,13.80
2018-07-09T03:51:12.360Z,13.80
2018-07-09T03:53:40.617Z,13.80
2018-07-09T03:56:08.937Z,13.80
2018-07-09T03:58:37.201Z,13.80
2018-07-09T04:01:05.473Z,13.80
2018-07-09T04:03:33.730Z,13.80
2018-07-09T04:06:02.027Z,13.90
2018-07-09T04:10:58.277Z,13.90
2018-07-09T04:15:54.555Z,14.00
2018-07-09T04:18:23.806Z,14.00
2018-07-09T04:20:53.276Z,14.00
2018-07-09T04:25:49.589Z,14.10
2018-07-09T04:28:17.873Z,14.10
2018-07-09T04:30:46.476Z,14.10
2018-07-09T04:33:14.750Z,14.10
2018-07-09T04:35:43.023Z,14.20
2018-07-09T04:38:11.302Z,14.20
2018-07-09T04:40:39.594Z,14.30
2018-07-09T04:43:07.844Z,14.30
2018-07-09T04:45:36.207Z,14.30
2018-07-09T04:48:04.509Z,14.40
2018-07-09T04:50:32.817Z,14.40
2018-07-09T04:53:01.095Z,14.40
2018-07-09T04:55:29.369Z,14.50
2018-07-09T04:57:57.739Z,14.50
2018-07-09T05:00:26.029Z,14.60
2018-07-09T05:02:54.309Z,14.70
2018-07-09T05:05:22.737Z,14.70
2018-07-09T05:07:51.161Z,14.80
2018-07-09T05:12:47.459Z,14.90
2018-07-09T05:15:15.737Z,15.00
2018-07-09T05:17:44.034Z,15.00
2018-07-09T05:20:12.311Z,15.10
2018-07-09T05:22:40.563Z,15.20
2018-07-09T05:25:08.854Z,15.30
2018-07-09T05:27:37.124Z,15.30
2018-07-09T05:30:05.489Z,15.50
2018-07-09T05:32:33.751Z,15.60
2018-07-09T05:37:30.060Z,15.70
2018-07-09T05:39:58.415Z,15.80
2018-07-09T05:42:26.687Z,15.90
2018-07-09T05:44:54.963Z,16.00
2018-07-09T05:47:23.290Z,16.10
2018-07-09T05:49:51.900Z,16.20
2018-07-09T05:52:20.247Z,16.20
2018-07-09T05:54:48.590Z,16.30
2018-07-09T05:59:45.333Z,16.40
2018-07-09T06:02:13.604Z,16.50
2018-07-09T06:04:41.893Z,16.60
2018-07-09T06:07:10.163Z,16.60
2018-07-09T06:09:38.414Z,16.70
2018-07-09T06:12:06.823Z,16.80
2018-07-09T06:14:35.161Z,16.90
2018-07-09T06:17:03.473Z,17.10
2018-07-09T06:19:31.784Z,17.20
2018-07-09T06:22:00.029Z,17.30
2018-07-09T06:24:28.339Z,17.50
2018-07-09T06:26:56.643Z,17.50
2018-07-09T06:29:24.946Z,17.70
2018-07-09T06:31:53.242Z,17.80
2018-07-09T06:34:21.523Z,17.80
2018-07-09T06:39:17.782Z,18.10
2018-07-09T06:41:46.047Z,18.20
2018-07-09T06:44:14.334Z,18.30
2018-07-09T06:46:42.746Z,18.40
2018-07-09T06:49:11.029Z,18.60
2018-07-09T06:51:39.304Z,18.80
2018-07-09T06:54:07.606Z,19.00
2018-07-09T06:56:35.900Z,19.30
2018-07-09T06:59:04.184Z,19.30
2018-07-09T07:01:32.553Z,19.40
2018-07-09T07:04:00.806Z,19.60
2018-07-09T07:06:29.109Z,19.70
2018-07-09T07:08:57.449Z,19.80
2018-07-09T07:11:25.685Z,19.90
2018-07-09T07:13:53.979Z,20.00
2018-07-09T07:16:22.265Z,20.10
2018-07-09T07:18:50.520Z,20.30
2018-07-09T07:21:18.902Z,20.60
2018-07-09T07:23:47.197Z,21.00
2018-07-09T07:26:15.478Z,21.50
2018-07-09T07:28:43.757Z,22.10
2018-07-09T07:31:12.036Z,22.40
2018-07-09T07:33:40.391Z,22.60
2018-07-09T07:38:36.797Z,22.60
2018-07-09T07:41:05.091Z,22.30
2018-07-09T07:43:33.364Z,22.20
2018-07-09T07:46:01.678Z,22.10
2018-07-09T07:48:30.024Z,21.90
2018-07-09T07:50:58.373Z,21.90
2018-07-09T07:55:54.793Z,21.80
2018-07-09T07:58:23.310Z,21.80
2018-07-09T08:00:51.653Z,21.80
2018-07-09T08:03:20.102Z,21.90
2018-07-09T08:05:48.417Z,22.00
2018-07-09T08:08:16.741Z,22.00
2018-07-09T08:10:45.044Z,22.00
2018-07-09T08:15:41.563Z,22.00
2018-07-09T08:20:37.787Z,21.90
2018-07-09T08:23:06.109Z,22.00
2018-07-09T08:25:34.437Z,22.00
2018-07-09T08:28:02.686Z,22.10
2018-07-09T08:30:31.007Z,22.20
2018-07-09T08:32:59.289Z,22.20
2018-07-09T08:35:27.575Z,22.30
2018-07-09T08:37:55.902Z,22.40
2018-07-09T08:40:24.171Z,22.40
2018-07-09T08:42:52.470Z,22.50
2018-07-09T08:45:20.759Z,22.60
2018-07-09T08:47:49.098Z,22.70
2018-07-09T08:50:17.387Z,22.80
2018-07-09T08:52:45.722Z,22.80
2018-07-09T08:55:14.121Z,22.80
2018-07-09T08:57:42.396Z,22.90
2018-07-09T09:02:38.739Z,22.90
2018-07-09T09:05:07.049Z,22.90
2018-07-09T09:10:03.491Z,22.80
2018-07-09T09:12:31.777Z,22.90
2018-07-09T09:15:00.102Z,22.90
2018-07-09T09:17:28.365Z,23.00
2018-07-09T09:19:56.748Z,23.10
2018-07-09T09:22:25.038Z,23.20
2018-07-09T09:24:53.309Z,23.30
2018-07-09T09:27:21.593Z,23.30
2018-07-09T09:29:49.879Z,23.40
2018-07-09T09:32:18.181Z,23.50
2018-07-09T09:34:46.459Z,23.60
2018-07-09T09:37:14.762Z,23.60
2018-07-09T09:39:43.039Z,23.70
2018-07-09T09:42:11.333Z,23.70
2018-07-09T09:44:39.635Z,23.80
2018-07-09T09:47:07.961Z,23.80
2018-07-09T09:49:36.279Z,23.70
2018-07-09T09:54:32.584Z,23.80
2018-07-09T09:59:29.029Z,24.00
2018-07-09T10:01:57.303Z,24.00
2018-07-09T10:04:25.611Z,24.00
2018-07-09T10:06:53.869Z,24.00
2018-07-09T10:09:22.175Z,24.00
2018-07-09T10:14:18.543Z,24.20
2018-07-09T10:19:14.848Z,24.30
2018-07-09T10:21:43.381Z,24.20
2018-07-09T10:24:11.667Z,24.20
2018-07-09T10:29:08.024Z,24.20
2018-07-09T10:31:36.342Z,24.30
2018-07-09T10:34:04.622Z,24.40
2018-07-09T10:36:33.018Z,24.60
2018-07-09T10:39:01.292Z,24.60
2018-07-09T10:41:29.572Z,24.60
2018-07-09T10:43:57.818Z,24.40
2018-07-09T10:46:26.111Z,24.30
2018-07-09T10:51:22.436Z,24.20
2018-07-09T10:53:50.721Z,24.40
2018-07-09T10:56:18.991Z,24.40
2018-07-09T10:58:47.332Z,24.50
2018-07-09T11:01:15.647Z,24.60
2018-07-09T11:03:44.776Z,24.60
2018-07-09T11:06:13.156Z,24.70
2018-07-09T11:08:41.440Z,24.80
2018-07-09T11:11:09.795Z,24.80
2018-07-09T11:13:38.052Z,24.70
2018-07-09T11:16:06.356Z,24.60
2018-07-09T11:18:34.636Z,24.40
2018-07-09T11:21:02.900Z,24.30
2018-07-09T11:23:31.196Z,24.30
2018-07-09T11:25:59.472Z,24.20
2018-07-09T11:28:27.744Z,24.20
2018-07-09T11:30:56.060Z,24.20
2018-07-09T11:33:24.358Z,24.30
2018-07-09T11:35:52.658Z,24.40
2018-07-09T11:40:48.968Z,24.50
2018-07-09T11:43:17.264Z,24.50
2018-07-09T11:45:45.689Z,24.60
2018-07-09T11:48:14.021Z,24.60
2018-07-09T11:50:42.335Z,24.60
2018-07-09T11:53:10.627Z,24.70
2018-07-09T11:55:38.911Z,24.80
2018-07-09T11:58:07.242Z,24.70
2018-07-09T12:00:35.593Z,24.60
2018-07-09T12:03:03.914Z,24.60
2018-07-09T12:05:32.304Z,24.60
2018-07-09T12:08:00.597Z,24.60
2018-07-09T12:10:29.259Z,24.80
2018-07-09T12:12:57.571Z,24.90
2018-07-09T12:15:25.842Z,25.00
2018-07-09T12:17:54.115Z,25.10
2018-07-09T12:20:22.409Z,25.20
2018-07-09T12:22:50.671Z,25.20
2018-07-09T12:25:18.954Z,25.00
2018-07-09T12:27:47.245Z,25.00
2018-07-09T12:30:15.657Z,24.90
2018-07-09T12:32:43.928Z,24.90
2018-07-09T12:35:12.246Z,24.90
2018-07-09T12:37:40.763Z,25.00
2018-07-09T12:40:09.058Z,25.10
2018-07-09T12:42:37.414Z,25.20
2018-07-09T12:47:33.739Z,25.20
2018-07-09T12:50:02.086Z,25.20
2018-07-09T12:52:30.419Z,25.30
2018-07-09T12:54:58.761Z,25.20
2018-07-09T12:57:27.031Z,25.20
2018-07-09T12:59:55.339Z,25.20
2018-07-09T13:02:23.635Z,25.10
2018-07-09T13:04:51.916Z,25.10
2018-07-09T13:07:20.214Z,25.10
2018-07-09T13:09:48.521Z,25.30
2018-07-09T13:12:22.279Z,25.40
2018-07-09T13:14:50.543Z,25.40
2018-07-09T13:17:18.825Z,25.40
2018-07-09T13:19:47.116Z,25.50
2018-07-09T13:22:15.397Z,25.50
2018-07-09T13:24:43.645Z,25.40
2018-07-09T13:29:39.942Z,25.40
2018-07-09T13:32:08.254Z,25.30
2018-07-09T13:34:36.566Z,25.40
2018-07-09T13:37:05.935Z,25.40
2018-07-09T13:39:35.058Z,25.40
2018-07-09T13:42:03.449Z,25.50
2018-07-09T13:44:31.831Z,25.60
2018-07-09T13:47:00.101Z,25.60
2018-07-09T13:49:28.445Z,25.50
2018-07-09T13:51:56.763Z,25.50
2018-07-09T13:54:25.074Z,25.50
2018-07-09T13:59:21.414Z,25.80
2018-07-09T14:01:49.697Z,25.90
2018-07-09T14:04:17.948Z,26.00
2018-07-09T14:06:46.255Z,26.00
2018-07-09T14:09:14.594Z,26.00
2018-07-09T14:11:42.851Z,26.00
2018-07-09T14:16:39.155Z,26.00
2018-07-09T14:21:39.909Z,25.90
2018-07-09T14:24:08.193Z,26.00
2018-07-09T14:26:36.483Z,25.90
2018-07-09T14:29:04.788Z,25.80
2018-07-09T14:31:33.075Z,25.80
2018-07-09T14:34:01.340Z,25.70
2018-07-09T14:36:29.735Z,25.60
2018-07-09T14:38:57.989Z,25.50
2018-07-09T14:41:26.244Z,25.70
2018-07-09T14:43:54.525Z,25.70
2018-07-09T14:46:22.804Z,25.80
2018-07-09T14:48:51.090Z,25.80
2018-07-09T14:51:19.380Z,25.90
2018-07-09T14:53:47.726Z,26.00
2018-07-09T14:56:16.006Z,26.00
2018-07-09T14:58:44.279Z,26.00
2018-07-09T15:01:12.626Z,25.90
2018-07-09T15:03:40.907Z,25.80
2018-07-09T15:06:09.406Z,25.80
2018-07-09T15:08:38.124Z,25.70
2018-07-09T15:11:06.653Z,25.70
2018-07-09T15:13:35.100Z,25.70
2018-07-09T15:16:03.367Z,25.60
2018-07-09T15:18:31.729Z,25.50
2018-07-09T15:21:00.015Z,25.40
2018-07-09T15:23:28.307Z,25.40
2018-07-09T15:25:56.620Z,25.40
2018-07-09T15:28:24.867Z,25.40
2018-07-09T15:30:53.140Z,25.40
2018-07-09T15:33:21.402Z,25.50
2018-07-09T15:35:49.700Z,25.40
2018-07-09T15:38:18.017Z,25.50
2018-07-09T15:40:46.657Z,25.40
2018-07-09T15:43:14.966Z,25.40
2018-07-09T15:45:43.237Z,25.30
2018-07-09T15:48:11.541Z,25.40
2018-07-09T15:50:39.862Z,25.40
2018-07-09T15:55:36.127Z,25.60
2018-07-09T15:58:04.434Z,25.70
2018-07-09T16:00:32.733Z,25.70
2018-07-09T16:03:01.060Z,25.70
2018-07-09T16:05:29.330Z,25.70
2018-07-09T16:07:57.608Z,25.60
2018-07-09T16:10:25.871Z,25.50
2018-07-09T16:12:54.242Z,25.40
2018-07-09T16:15:22.441Z,25.30
2018-07-09T16:17:50.711Z,25.20
2018-07-09T16:20:19.028Z,25.20
2018-07-09T16:22:47.316Z,25.20
2018-07-09T16:25:15.584Z,25.20
2018-07-09T16:27:43.886Z,25.20
2018-07-09T16:30:12.178Z,25.20
2018-07-09T16:35:08.451Z,25.30
2018-07-09T16:37:36.712Z,25.20
2018-07-09T16:40:05.076Z,25.20
2018-07-09T16:42:33.348Z,25.20
2018-07-09T16:45:01.639Z,25.10
2018-07-09T16:47:29.900Z,25.10
2018-07-09T16:49:58.213Z,25.10
2018-07-09T16:52:26.499Z,25.10
2018-07-09T16:54:54.851Z,25.00
2018-07-09T16:57:23.044Z,25.10
2018-07-09T16:59:51.292Z,25.20
2018-07-09T17:02:19.570Z,25.20
2018-07-09T17:04:47.832Z,25.20
2018-07-09T17:07:16.108Z,25.40
2018-07-09T17:09:44.388Z,25.50
2018-07-09T17:14:40.662Z,25.80
2018-07-09T17:17:08.984Z,25.90
2018-07-09T17:19:37.260Z,25.90
2018-07-09T17:22:05.560Z,26.00
2018-07-09T17:24:33.885Z,26.00
2018-07-09T17:27:02.372Z,25.80
2018-07-09T17:29:30.501Z,25.70
2018-07-09T17:34:26.914Z,25.70
2018-07-09T17:36:55.220Z,25.70
2018-07-09T17:39:23.474Z,25.70
2018-07-09T17:44:20.029Z,25.50
2018-07-09T17:49:16.341Z,25.00
2018-07-09T17:51:44.657Z,24.70
2018-07-09T17:54:12.960Z,24.40
2018-07-09T17:59:09.392Z,24.10
2018-07-09T18:01:37.709Z,24.00
2018-07-09T18:04:06.304Z,24.00
2018-07-09T18:06:34.597Z,24.20
2018-07-09T18:09:02.965Z,24.10
2018-07-09T18:11:31.246Z,24.00
2018-07-09T18:13:59.596Z,23.90
2018-07-09T18:16:27.864Z,23.70
2018-07-09T18:18:56.208Z,23.60
2018-07-09T18:21:24.540Z,23.40
2018-07-09T18:26:20.840Z,23.30
2018-07-09T18:28:49.143Z,23.20
2018-07-09T18:31:17.448Z,23.10
2018-07-09T18:33:45.733Z,23.00
2018-07-09T18:36:14.011Z,22.90
2018-07-09T18:38:42.551Z,22.80
2018-07-09T18:41:10.750Z,22.80
2018-07-09T18:43:39.062Z,22.70
2018-07-09T18:46:07.343Z,22.60
2018-07-09T18:48:35.688Z,22.50
2018-07-09T18:58:28.106Z,22.20
2018-07-09T19:00:56.365Z,22.20
2018-07-09T19:03:24.618Z,22.10
2018-07-09T19:07:02.336Z,22.10
2018-07-09T19:09:31.403Z,22.00
2018-07-09T19:12:00.542Z,22.00
2018-07-09T19:14:31.169Z,21.90
2018-07-09T19:18:09.633Z,21.80
2018-07-09T19:21:18.290Z,21.70
2018-07-09T19:23:45.536Z,21.60
2018-07-09T19:26:12.777Z,21.40
2018-07-09T19:28:40.015Z,21.30
2018-07-09T19:33:34.752Z,21.10
2018-07-09T19:36:02.007Z,21.00
2018-07-09T19:40:56.853Z,20.80
2018-07-09T19:43:24.095Z,20.80
2018-07-09T19:45:51.360Z,20.70
2018-07-09T19:50:46.540Z,20.50
2018-07-09T19:53:13.901Z,20.50
2018-07-09T19:55:41.783Z,20.40
2018-07-09T19:58:09.019Z,20.30
2018-07-09T20:00:37.021Z,20.30
2018-07-09T20:03:04.996Z,20.30
2018-07-09T20:05:32.257Z,20.20
2018-07-09T20:07:59.933Z,20.20
2018-07-09T20:10:32.734Z,20.20
2018-07-09T20:13:10.100Z,20.20
2018-07-09T20:15:42.571Z,20.20
2018-07-09T20:18:09.806Z,20.10
2018-07-09T20:20:37.067Z,20.10
2018-07-09T20:25:31.848Z,20.00
2018-07-09T20:27:59.095Z,19.90
2018-07-09T20:30:26.374Z,19.90
2018-07-09T20:32:53.609Z,19.90
2018-07-09T20:35:20.861Z,19.80
2018-07-09T20:37:48.109Z,19.70
2018-07-09T20:40:15.380Z,19.70
2018-07-09T20:42:42.675Z,19.70
2018-07-09T20:45:09.932Z,19.70
2018-07-09T20:47:37.184Z,19.60
2018-07-09T20:50:04.415Z,19.50
2018-07-09T20:52:31.657Z,19.40
2018-07-09T20:54:58.899Z,19.30
2018-07-09T20:57:26.126Z,19.20
2018-07-09T20:59:53.365Z,19.20
2018-07-09T21:04:48.156Z,19.10
2018-07-09T21:07:15.343Z,19.10
2018-07-09T21:09:42.625Z,19.10
2018-07-09T21:12:10.156Z,19.10
2018-07-09T21:14:37.399Z,19.10
2018-07-09T21:17:04.629Z,19.10
2018-07-09T21:19:31.856Z,19.10
2018-07-09T21:21:59.139Z,19.00
2018-07-09T21:24:26.362Z,19.00
2018-07-09T21:29:21.096Z,19.00
2018-07-09T21:34:15.860Z,19.00
2018-07-09T21:36:43.114Z,18.90
2018-07-09T21:39:10.378Z,18.90
2018-07-09T21:46:32.666Z,18.80
2018-07-09T21:53:54.908Z,18.80
2018-07-09T21:56:22.147Z,18.80
2018-07-09T21:58:49.391Z,18.70
2018-07-09T22:01:16.625Z,18.70
2018-07-09T22:03:43.876Z,18.70
2018-07-09T22:06:11.477Z,18.70
2018-07-09T22:08:38.737Z,18.70
2018-07-09T22:11:05.996Z,18.60
2018-07-09T22:13:33.234Z,18.60
2018-07-09T22:16:00.610Z,18.50
2018-07-09T22:18:27.857Z,18.50
2018-07-09T22:20:55.076Z,18.40
2018-07-09T22:23:22.324Z,18.40
2018-07-09T22:25:49.572Z,18.40
2018-07-09T22:28:16.815Z,18.30
2018-07-09T22:30:45.146Z,18.30
2018-07-09T22:33:13.428Z,18.20
2018-07-09T22:35:41.740Z,18.10
2018-07-09T22:38:10.064Z,18.10
2018-07-09T22:44:17.212Z,18.00
2018-07-09T22:46:45.547Z,17.90
2018-07-09T22:49:13.902Z,17.80
2018-07-09T22:51:42.167Z,17.70
2018-07-09T22:54:10.468Z,17.60
2018-07-09T22:56:38.744Z,17.60
2018-07-09T22:59:07.032Z,17.50
2018-07-09T23:01:35.340Z,17.50
2018-07-09T23:04:03.658Z,17.50
2018-07-09T23:06:31.924Z,17.40
2018-07-09T23:09:18.188Z,17.40
2018-07-09T23:14:03.418Z,17.40
2018-07-09T23:16:46.361Z,17.40
2018-07-09T23:19:27.986Z,17.30
2018-07-09T23:22:22.540Z,17.30
2018-07-09T23:24:49.832Z,17.20
2018-07-09T23:27:17.100Z,17.20
2018-07-09T23:29:44.347Z,17.20
2018-07-09T23:34:39.064Z,17.10
2018-07-09T23:37:06.301Z,17.10
2018-07-09T23:39:33.540Z,17.00
2018-07-09T23:42:00.777Z,17.00
2018-07-09T23:44:28.000Z,17.00
2018-07-09T23:49:22.734Z,16.90
2018-07-09T23:51:49.975Z,16.90
2018-07-09T23:54:17.222Z,16.90
2018-07-09T23:56:58.513Z,16.80
2018-07-09T23:59:37.978Z,16.70
